Аэропорт: Днепропетровск. Днепропетровск

ICAO: UKDD

METAR:
2019-07-23 18:30:00
UKDD 231830Z VRB01MPS CAVOK 20/17 Q1011 R08/090070 NOSIG
METAR:
2019-07-23 17:16:00
TAF COR UKDD 231716Z 2318/2418 VRB01MPS CAVOK TX28/2412Z TN16/2402Z BECMG 2404/2406 29005G10MPS 9999 SCT025CB BKN030 TEMPO 2410/2418 VRB09G14MPS 1100 TSRA SQ SCT005 BKN020CB